createdAt,value
2018-05-25T00:01:17.235Z,23.57
2018-05-25T00:03:43.231Z,23.57
2018-05-25T00:06:09.233Z,23.57
2018-05-25T00:08:35.206Z,23.56
2018-05-25T00:11:01.191Z,23.57
2018-05-25T00:13:27.181Z,23.57
2018-05-25T00:15:53.168Z,23.56
2018-05-25T00:18:19.157Z,23.56
2018-05-25T00:20:45.136Z,23.56
2018-05-25T00:23:11.126Z,23.56
2018-05-25T00:25:37.107Z,23.56
2018-05-25T00:28:03.090Z,23.56
2018-05-25T00:30:29.167Z,23.55
2018-05-25T00:32:55.150Z,23.55
2018-05-25T00:35:21.127Z,23.55
2018-05-25T00:37:47.118Z,23.55
2018-05-25T00:40:13.108Z,23.55
2018-05-25T00:42:39.093Z,23.55
2018-05-25T00:45:05.081Z,23.55
2018-05-25T00:47:31.060Z,23.55
2018-05-25T00:49:57.044Z,23.54
2018-05-25T00:52:23.023Z,23.54
2018-05-25T00:54:49.002Z,23.54
2018-05-25T00:57:14.981Z,23.54
2018-05-25T00:59:40.966Z,23.54
2018-05-25T01:02:06.957Z,23.54
2018-05-25T01:04:32.969Z,23.53
2018-05-25T01:06:58.950Z,23.54
2018-05-25T01:09:24.932Z,23.53
2018-05-25T01:11:50.932Z,23.53
2018-05-25T01:14:16.921Z,23.53
2018-05-25T01:16:42.909Z,23.53
2018-05-25T01:19:08.888Z,23.53
2018-05-25T01:21:34.866Z,23.53
2018-05-25T01:24:00.844Z,23.53
2018-05-25T01:26:26.824Z,23.53
2018-05-25T01:28:52.801Z,23.52
2018-05-25T01:31:18.792Z,23.52
2018-05-25T01:33:44.772Z,23.52
2018-05-25T01:36:10.792Z,23.52
2018-05-25T01:38:36.770Z,23.52
2018-05-25T01:41:02.752Z,23.52
2018-05-25T01:43:28.735Z,23.52
2018-05-25T01:45:54.718Z,23.52
2018-05-25T01:48:20.707Z,23.51
2018-05-25T01:50:46.690Z,23.51
2018-05-25T01:53:12.677Z,23.51
2018-05-25T01:55:38.665Z,23.51
2018-05-25T01:58:04.657Z,23.51
2018-05-25T02:00:30.644Z,23.51
2018-05-25T02:02:56.629Z,23.50
2018-05-25T02:05:22.613Z,23.51
2018-05-25T02:07:48.594Z,23.51
2018-05-25T02:10:14.573Z,23.50
2018-05-25T02:12:40.558Z,23.50
2018-05-25T02:15:06.545Z,23.51
2018-05-25T02:17:32.527Z,23.50
2018-05-25T02:19:58.519Z,23.50
2018-05-25T02:22:24.495Z,23.50
2018-05-25T02:24:50.476Z,23.49
2018-05-25T02:27:16.459Z,23.50
2018-05-25T02:29:42.445Z,23.50
2018-05-25T02:32:08.426Z,23.50
2018-05-25T02:34:34.404Z,23.49
2018-05-25T02:37:00.386Z,23.49
2018-05-25T02:39:26.374Z,23.49
2018-05-25T02:41:52.362Z,23.49
2018-05-25T02:44:18.348Z,23.49
2018-05-25T02:46:44.327Z,23.49
2018-05-25T02:49:10.308Z,23.48
2018-05-25T02:51:36.299Z,23.48
2018-05-25T02:54:02.281Z,23.48
2018-05-25T02:56:28.266Z,23.49
2018-05-25T02:58:54.252Z,23.48
2018-05-25T03:01:20.232Z,23.48
2018-05-25T03:03:46.217Z,23.48
2018-05-25T03:06:12.214Z,23.48
2018-05-25T03:08:38.201Z,23.48
2018-05-25T03:11:04.188Z,23.47
2018-05-25T03:13:30.168Z,23.47
2018-05-25T03:15:56.149Z,23.47
2018-05-25T03:18:22.123Z,23.47
2018-05-25T03:20:48.105Z,23.47
2018-05-25T03:23:14.081Z,23.47
2018-05-25T03:25:40.072Z,23.47
2018-05-25T03:28:06.045Z,23.47
2018-05-25T03:30:32.032Z,23.46
2018-05-25T03:32:58.016Z,23.47
2018-05-25T03:35:23.985Z,23.46
2018-05-25T03:37:49.972Z,23.47
2018-05-25T03:40:15.948Z,23.46
2018-05-25T03:42:41.926Z,23.46
2018-05-25T03:45:07.910Z,23.46
2018-05-25T03:47:33.890Z,23.46
2018-05-25T03:49:59.899Z,23.48
2018-05-25T03:52:25.874Z,23.49
2018-05-25T03:54:51.869Z,23.49
2018-05-25T03:57:17.869Z,23.48
2018-05-25T03:59:43.851Z,23.48
2018-05-25T04:02:09.831Z,23.48
2018-05-25T04:04:35.811Z,23.48
2018-05-25T04:07:01.802Z,23.49
2018-05-25T04:09:27.780Z,23.49
2018-05-25T04:11:53.765Z,23.48
2018-05-25T04:14:19.793Z,23.49
2018-05-25T04:16:45.771Z,23.49
2018-05-25T04:19:11.782Z,23.50
2018-05-25T04:21:37.766Z,23.51
2018-05-25T04:24:03.760Z,23.51
2018-05-25T04:26:29.737Z,23.50
2018-05-25T04:28:55.728Z,23.51
2018-05-25T04:31:21.713Z,23.52
2018-05-25T04:33:47.694Z,23.53
2018-05-25T04:36:13.678Z,23.54
2018-05-25T04:38:39.673Z,23.54
2018-05-25T04:41:05.689Z,23.53
2018-05-25T04:43:31.664Z,23.55
2018-05-25T04:45:57.655Z,23.54
2018-05-25T04:48:23.641Z,23.53
2018-05-25T04:50:49.623Z,23.54
2018-05-25T04:53:15.615Z,23.54
2018-05-25T04:55:41.623Z,23.53
2018-05-25T04:58:07.631Z,23.53
2018-05-25T05:00:33.582Z,23.54
2018-05-25T05:02:59.579Z,23.53
2018-05-25T05:05:25.566Z,23.53
2018-05-25T05:07:51.549Z,23.53
2018-05-25T05:10:17.528Z,23.53
2018-05-25T05:12:43.511Z,23.54
2018-05-25T05:15:09.497Z,23.54
2018-05-25T05:17:35.495Z,23.54
2018-05-25T05:20:01.591Z,23.53
2018-05-25T05:22:27.600Z,23.53
2018-05-25T05:24:53.558Z,23.52
2018-05-25T05:27:19.544Z,23.53
2018-05-25T05:29:45.527Z,23.53
2018-05-25T05:32:11.659Z,23.53
2018-05-25T05:34:37.659Z,23.52
2018-05-25T05:37:03.740Z,23.53
2018-05-25T05:39:29.705Z,23.52
2018-05-25T05:41:55.715Z,23.52
2018-05-25T05:44:21.700Z,23.52
2018-05-25T05:46:47.690Z,23.52
2018-05-25T05:49:13.664Z,23.52
2018-05-25T05:51:39.693Z,23.53
2018-05-25T05:54:05.663Z,23.53
2018-05-25T05:56:31.674Z,23.52
2018-05-25T05:58:57.661Z,23.52
2018-05-25T06:01:23.648Z,23.52
2018-05-25T06:03:49.631Z,23.52
2018-05-25T06:06:15.618Z,23.51
2018-05-25T06:08:41.699Z,23.51
2018-05-25T06:11:07.722Z,23.51
2018-05-25T06:13:33.707Z,23.51
2018-05-25T06:15:59.686Z,23.50
2018-05-25T06:18:25.680Z,23.49
2018-05-25T06:20:51.668Z,23.49
2018-05-25T06:23:17.651Z,23.49
2018-05-25T06:25:43.679Z,23.49
2018-05-25T06:28:09.681Z,23.48
2018-05-25T06:30:35.654Z,23.48
2018-05-25T06:33:01.760Z,23.48
2018-05-25T06:35:27.753Z,23.48
2018-05-25T06:37:53.788Z,23.50
2018-05-25T06:40:19.760Z,23.50
2018-05-25T06:42:45.743Z,23.49
2018-05-25T06:45:11.726Z,23.50
2018-05-25T06:47:37.707Z,23.51
2018-05-25T06:50:03.700Z,23.51
2018-05-25T06:52:29.678Z,23.52
2018-05-25T06:54:55.683Z,23.52
2018-05-25T06:57:21.663Z,23.52
2018-05-25T06:59:47.652Z,23.52
2018-05-25T07:02:13.641Z,23.53
2018-05-25T07:04:39.766Z,23.54
2018-05-25T07:07:05.747Z,23.54
2018-05-25T07:09:31.872Z,23.54
2018-05-25T07:11:57.827Z,23.54
2018-05-25T07:14:23.813Z,23.54
2018-05-25T07:16:49.874Z,23.54
2018-05-25T07:19:15.885Z,23.53
2018-05-25T07:21:41.923Z,23.54
2018-05-25T07:24:07.914Z,23.54
2018-05-25T07:26:33.896Z,23.54
2018-05-25T07:28:59.881Z,23.54
2018-05-25T07:31:25.856Z,23.55
2018-05-25T07:33:51.841Z,23.55
2018-05-25T07:36:17.823Z,23.55
2018-05-25T07:38:43.820Z,23.54
2018-05-25T07:41:09.842Z,23.54
2018-05-25T07:43:35.818Z,23.54
2018-05-25T07:46:01.800Z,23.54
2018-05-25T07:48:27.786Z,23.53
2018-05-25T07:50:53.805Z,23.53
2018-05-25T07:53:19.784Z,23.53
2018-05-25T07:55:45.768Z,23.53
2018-05-25T07:58:11.757Z,23.54
2018-05-25T08:00:37.750Z,23.54
2018-05-25T08:03:03.719Z,23.54
2018-05-25T08:05:29.727Z,23.55
2018-05-25T08:07:55.728Z,23.55
2018-05-25T08:10:21.722Z,23.56
2018-05-25T08:12:47.713Z,23.56
2018-05-25T08:15:13.731Z,23.56
2018-05-25T08:17:39.723Z,23.55
2018-05-25T08:20:05.727Z,23.54
2018-05-25T08:22:31.762Z,23.53
2018-05-25T08:24:57.732Z,23.52
2018-05-25T08:27:23.725Z,23.52
2018-05-25T08:29:49.708Z,23.51
2018-05-25T08:32:15.714Z,23.52
2018-05-25T08:34:41.701Z,23.52
2018-05-25T08:37:07.673Z,23.53
2018-05-25T08:39:33.685Z,23.53
2018-05-25T08:41:59.670Z,23.53
2018-05-25T08:44:25.651Z,23.54
2018-05-25T08:46:51.686Z,23.54
2018-05-25T08:49:17.625Z,23.54
2018-05-25T08:51:43.611Z,23.54
2018-05-25T08:54:09.678Z,23.53
2018-05-25T08:56:35.665Z,23.54
2018-05-25T08:59:01.652Z,23.54
2018-05-25T09:01:27.673Z,23.54
2018-05-25T09:03:53.654Z,23.54
2018-05-25T09:06:19.635Z,23.54
2018-05-25T09:08:45.612Z,23.55
2018-05-25T09:11:11.627Z,23.55
2018-05-25T09:13:37.604Z,23.55
2018-05-25T09:16:03.588Z,23.56
2018-05-25T09:18:29.566Z,23.56
2018-05-25T09:20:55.556Z,23.56
2018-05-25T09:23:21.543Z,23.57
2018-05-25T09:25:47.525Z,23.57
2018-05-25T09:28:13.511Z,23.57
2018-05-25T09:30:39.488Z,23.57
2018-05-25T09:33:05.468Z,23.57
2018-05-25T09:35:31.455Z,23.57
2018-05-25T09:37:57.426Z,23.56
2018-05-25T09:40:23.407Z,23.56
2018-05-25T09:42:49.383Z,23.56
2018-05-25T09:45:15.396Z,23.54
2018-05-25T09:47:41.402Z,23.55
2018-05-25T09:50:07.376Z,23.55
2018-05-25T09:52:33.353Z,23.54
2018-05-25T09:54:59.331Z,23.54
2018-05-25T09:57:25.317Z,23.54
2018-05-25T09:59:51.308Z,23.54
2018-05-25T10:02:17.302Z,23.54
2018-05-25T10:04:43.313Z,23.53
2018-05-25T10:07:09.296Z,23.53
2018-05-25T10:09:35.293Z,23.53
2018-05-25T10:12:01.282Z,23.54
2018-05-25T10:14:27.255Z,23.53
2018-05-25T10:16:53.242Z,23.52
2018-05-25T10:19:19.286Z,23.52
2018-05-25T10:21:45.264Z,23.54
2018-05-25T10:24:11.246Z,23.54
2018-05-25T10:26:37.222Z,23.54
2018-05-25T10:29:03.310Z,23.54
2018-05-25T10:31:29.291Z,23.54
2018-05-25T10:33:55.288Z,23.55
2018-05-25T10:36:21.268Z,23.56
2018-05-25T10:38:47.253Z,23.56
2018-05-25T10:41:13.276Z,23.57
2018-05-25T10:43:39.203Z,23.56
2018-05-25T10:46:05.179Z,23.57
2018-05-25T10:48:31.160Z,23.57
2018-05-25T10:50:57.150Z,23.56
2018-05-25T10:53:23.153Z,23.57
2018-05-25T10:55:49.177Z,23.56
2018-05-25T10:58:15.173Z,23.57
2018-05-25T11:00:41.157Z,23.58
2018-05-25T11:03:07.150Z,23.57
2018-05-25T11:05:33.196Z,23.57
2018-05-25T11:07:59.187Z,23.58
2018-05-25T11:10:25.225Z,23.57
2018-05-25T11:12:51.205Z,23.57
2018-05-25T11:15:17.208Z,23.58
2018-05-25T11:17:43.218Z,23.58
2018-05-25T11:20:09.215Z,23.58
2018-05-25T11:22:35.199Z,23.58
2018-05-25T11:25:01.185Z,23.58
2018-05-25T11:27:27.178Z,23.59
2018-05-25T11:29:53.228Z,23.60
2018-05-25T11:32:19.214Z,23.60
2018-05-25T11:34:45.256Z,23.60
2018-05-25T11:37:11.267Z,23.61
2018-05-25T11:39:37.247Z,23.62
2018-05-25T11:42:03.234Z,23.63
2018-05-25T11:44:29.241Z,23.62
2018-05-25T11:46:55.229Z,23.61
2018-05-25T11:49:21.210Z,23.62
2018-05-25T11:51:47.200Z,23.62
2018-05-25T11:54:13.212Z,23.62
2018-05-25T11:56:39.203Z,23.60
2018-05-25T11:59:05.183Z,23.59
2018-05-25T12:01:31.160Z,23.58
2018-05-25T12:03:57.147Z,23.58
2018-05-25T12:06:23.147Z,23.58
2018-05-25T12:08:49.161Z,23.56
2018-05-25T12:11:15.137Z,23.56
2018-05-25T12:13:41.114Z,23.57
2018-05-25T12:16:07.109Z,23.58
2018-05-25T12:18:33.096Z,23.60
2018-05-25T12:20:59.115Z,23.61
2018-05-25T12:23:25.063Z,23.61
2018-05-25T12:25:51.064Z,23.62
2018-05-25T12:28:17.255Z,23.61
2018-05-25T12:30:43.243Z,23.62
2018-05-25T12:33:09.259Z,23.62
2018-05-25T12:35:35.260Z,23.63
2018-05-25T12:38:01.250Z,23.65
2018-05-25T12:40:27.305Z,23.64
2018-05-25T12:42:53.244Z,23.65
2018-05-25T12:45:19.230Z,23.66
2018-05-25T12:47:45.220Z,23.67
2018-05-25T12:50:11.226Z,23.66
2018-05-25T12:52:37.198Z,23.67
2018-05-25T12:55:03.187Z,23.65
2018-05-25T12:57:29.208Z,23.67
2018-05-25T12:59:55.210Z,23.66
2018-05-25T13:02:21.226Z,23.65
2018-05-25T13:04:47.213Z,23.65
2018-05-25T13:07:13.207Z,23.65
2018-05-25T13:09:39.192Z,23.65
2018-05-25T13:12:05.197Z,23.64
2018-05-25T13:14:31.181Z,23.64
2018-05-25T13:16:57.171Z,23.65
2018-05-25T13:19:23.163Z,23.65
2018-05-25T13:21:49.803Z,23.67
2018-05-25T13:24:15.771Z,23.68
2018-05-25T13:26:41.750Z,23.69
2018-05-25T13:29:07.737Z,23.69
2018-05-25T13:31:33.743Z,23.72
2018-05-25T13:33:59.716Z,23.72
2018-05-25T13:36:25.696Z,23.71
2018-05-25T13:38:51.748Z,23.72
2018-05-25T13:41:17.769Z,23.72
2018-05-25T13:43:43.762Z,23.72
2018-05-25T13:46:09.995Z,23.74
2018-05-25T13:48:35.980Z,23.75
2018-05-25T13:51:01.977Z,23.74
2018-05-25T13:53:27.961Z,23.75
2018-05-25T13:55:53.940Z,23.75
2018-05-25T13:58:19.939Z,23.74
2018-05-25T14:00:45.924Z,23.72
2018-05-25T14:03:11.906Z,23.71
2018-05-25T14:05:37.891Z,23.70
2018-05-25T14:08:03.896Z,23.73
2018-05-25T14:10:29.886Z,23.71
2018-05-25T14:12:55.873Z,23.69
2018-05-25T14:15:21.860Z,23.68
2018-05-25T14:17:47.878Z,23.68
2018-05-25T14:20:13.875Z,23.66
2018-05-25T14:22:39.936Z,23.67
2018-05-25T14:25:05.893Z,23.69
2018-05-25T14:27:31.871Z,23.69
2018-05-25T14:29:57.867Z,23.69
2018-05-25T14:32:23.908Z,23.69
2018-05-25T14:34:49.903Z,23.69
2018-05-25T14:37:15.890Z,23.69
2018-05-25T14:39:41.874Z,23.70
2018-05-25T14:42:07.865Z,23.71
2018-05-25T14:44:33.896Z,23.71
2018-05-25T14:46:59.879Z,23.71
2018-05-25T14:49:25.868Z,23.72
2018-05-25T14:51:51.892Z,23.73
2018-05-25T14:54:17.890Z,23.73
2018-05-25T14:56:43.920Z,23.72
2018-05-25T14:59:09.930Z,23.75
2018-05-25T15:01:35.938Z,23.75
2018-05-25T15:04:01.928Z,23.75
2018-05-25T15:06:27.959Z,23.75
2018-05-25T15:08:53.962Z,23.77
2018-05-25T15:11:19.944Z,23.79
2018-05-25T15:13:45.956Z,23.82
2018-05-25T15:16:11.912Z,23.83
2018-05-25T15:18:37.896Z,23.84
2018-05-25T15:21:03.886Z,23.86
2018-05-25T15:23:29.999Z,23.87
2018-05-25T15:25:55.991Z,23.88
2018-05-25T15:28:21.986Z,23.89
2018-05-25T15:30:48.028Z,23.91
2018-05-25T15:33:13.991Z,23.92
2018-05-25T15:35:39.972Z,23.93
2018-05-25T15:38:06.024Z,23.91
2018-05-25T15:40:32.013Z,23.93
2018-05-25T15:42:59.211Z,23.94
2018-05-25T15:45:23.983Z,23.96
2018-05-25T15:47:49.973Z,23.98
2018-05-25T15:50:15.947Z,23.98
2018-05-25T15:52:41.964Z,24.01
2018-05-25T15:55:07.942Z,24.02
2018-05-25T15:57:33.967Z,24.01
2018-05-25T15:59:59.959Z,24.02
2018-05-25T16:02:25.968Z,24.01
2018-05-25T16:04:51.925Z,24.02
2018-05-25T16:07:18.607Z,24.00
2018-05-25T16:09:45.233Z,23.99
2018-05-25T16:12:11.215Z,24.00
2018-05-25T16:14:37.235Z,24.00
2018-05-25T16:17:03.285Z,23.99
2018-05-25T16:19:29.275Z,24.01
2018-05-25T16:21:55.265Z,24.01
2018-05-25T16:24:21.252Z,24.00
2018-05-25T16:26:47.262Z,24.02
2018-05-25T16:29:13.248Z,24.00
2018-05-25T16:31:39.237Z,24.01
2018-05-25T16:34:05.239Z,24.02
2018-05-25T16:36:31.208Z,24.02
2018-05-25T16:38:57.192Z,24.02
2018-05-25T16:41:23.176Z,24.03
2018-05-25T16:43:50.419Z,24.02
2018-05-25T16:46:15.297Z,24.01
2018-05-25T16:48:41.201Z,24.00
2018-05-25T16:51:07.286Z,23.99
2018-05-25T16:53:33.264Z,23.98
2018-05-25T16:55:59.256Z,23.98
2018-05-25T16:58:25.238Z,23.98
2018-05-25T17:00:51.230Z,23.98
2018-05-25T17:03:17.247Z,23.99
2018-05-25T17:05:43.236Z,23.98
2018-05-25T17:08:09.223Z,23.98
2018-05-25T17:10:35.193Z,23.98
2018-05-25T17:13:01.179Z,23.97
2018-05-25T17:15:27.199Z,23.97
2018-05-25T17:17:53.170Z,23.97
2018-05-25T17:20:19.145Z,23.97
2018-05-25T17:22:45.127Z,23.96
2018-05-25T17:25:11.124Z,23.96
2018-05-25T17:27:37.110Z,23.97
2018-05-25T17:30:03.107Z,23.96
2018-05-25T17:32:29.109Z,23.95
2018-05-25T17:34:55.100Z,23.95
2018-05-25T17:37:21.084Z,23.93
2018-05-25T17:39:47.086Z,23.96
2018-05-25T17:42:13.120Z,23.96
2018-05-25T17:44:39.081Z,23.96
2018-05-25T17:47:05.094Z,23.96
2018-05-25T17:49:31.047Z,23.96
2018-05-25T17:51:57.033Z,23.97
2018-05-25T17:54:23.019Z,23.96
2018-05-25T17:56:49.034Z,23.96
2018-05-25T17:59:15.042Z,23.97
2018-05-25T18:01:40.993Z,23.97
2018-05-25T18:04:07.017Z,23.98
2018-05-25T18:06:32.995Z,23.99
2018-05-25T18:08:59.023Z,23.97
2018-05-25T18:11:25.011Z,23.96
2018-05-25T18:13:51.004Z,23.96
2018-05-25T18:16:16.989Z,23.95
2018-05-25T18:18:42.977Z,23.94
2018-05-25T18:21:08.957Z,23.94
2018-05-25T18:23:34.935Z,23.94
2018-05-25T18:26:00.930Z,23.94
2018-05-25T18:28:26.917Z,23.94
2018-05-25T18:30:52.892Z,23.93
2018-05-25T18:33:18.885Z,23.93
2018-05-25T18:35:44.871Z,23.93
2018-05-25T18:38:10.855Z,23.92
2018-05-25T18:40:36.845Z,23.90
2018-05-25T18:43:02.828Z,23.90
2018-05-25T18:45:28.817Z,23.90
2018-05-25T18:47:54.853Z,23.90
2018-05-25T18:50:20.835Z,23.90
2018-05-25T18:52:46.886Z,23.90
2018-05-25T18:55:12.875Z,23.90
2018-05-25T18:57:38.859Z,23.90
2018-05-25T19:00:04.921Z,23.90
2018-05-25T19:02:30.899Z,23.89
2018-05-25T19:04:56.982Z,23.90
2018-05-25T19:07:22.943Z,23.89
2018-05-25T19:09:48.946Z,23.88
2018-05-25T19:12:14.927Z,23.89
2018-05-25T19:14:40.949Z,23.89
2018-05-25T19:17:06.931Z,23.89
2018-05-25T19:19:32.914Z,23.88
2018-05-25T19:21:58.899Z,23.88
2018-05-25T19:24:24.886Z,23.88
2018-05-25T19:26:50.955Z,23.88
2018-05-25T19:29:16.916Z,23.87
2018-05-25T19:31:42.899Z,23.87
2018-05-25T19:34:08.884Z,23.88
2018-05-25T19:36:34.870Z,23.88
2018-05-25T19:39:00.880Z,23.87
2018-05-25T19:41:26.896Z,23.87
2018-05-25T19:43:52.883Z,23.87
2018-05-25T19:46:18.865Z,23.87
2018-05-25T19:48:44.885Z,23.87
2018-05-25T19:51:10.877Z,23.86
2018-05-25T19:53:36.867Z,23.87
2018-05-25T19:56:02.945Z,23.87
2018-05-25T19:58:28.942Z,23.87
2018-05-25T20:00:54.926Z,23.86
2018-05-25T20:03:20.941Z,23.86
2018-05-25T20:05:46.919Z,23.87
2018-05-25T20:08:12.948Z,23.87
2018-05-25T20:10:38.977Z,23.86
2018-05-25T20:13:04.969Z,23.87
2018-05-25T20:15:31.224Z,23.86
2018-05-25T20:17:57.144Z,23.87
2018-05-25T20:20:23.166Z,23.87
2018-05-25T20:22:49.146Z,23.87
2018-05-25T20:25:15.173Z,23.87
2018-05-25T20:27:41.162Z,23.86
2018-05-25T20:30:07.214Z,23.85
2018-05-25T20:32:33.195Z,23.85
2018-05-25T20:34:59.202Z,23.84
2018-05-25T20:37:25.151Z,23.83
2018-05-25T20:39:51.423Z,23.82
2018-05-25T20:42:17.403Z,23.83
2018-05-25T20:44:43.410Z,23.82
2018-05-25T20:47:09.377Z,23.82
2018-05-25T20:49:35.366Z,23.82
2018-05-25T20:52:01.365Z,23.81
2018-05-25T20:54:27.371Z,23.81
2018-05-25T20:56:53.342Z,23.80
2018-05-25T20:59:19.337Z,23.80
2018-05-25T21:01:45.334Z,23.80
2018-05-25T21:04:13.248Z,23.79
2018-05-25T21:06:39.232Z,23.79
2018-05-25T21:09:05.216Z,23.79
2018-05-25T21:11:31.203Z,23.78
2018-05-25T21:13:57.193Z,23.78
2018-05-25T21:16:23.179Z,23.78
2018-05-25T21:18:49.202Z,23.78
2018-05-25T21:21:15.188Z,23.77
2018-05-25T21:23:41.172Z,23.77
2018-05-25T21:26:07.157Z,23.76
2018-05-25T21:28:33.136Z,23.76
2018-05-25T21:30:59.114Z,23.76
2018-05-25T21:33:25.093Z,23.76
2018-05-25T21:35:51.070Z,23.75
2018-05-25T21:38:17.065Z,23.75
2018-05-25T21:40:43.070Z,23.75
2018-05-25T21:43:09.052Z,23.75
2018-05-25T21:45:35.032Z,23.75
2018-05-25T21:48:01.019Z,23.75
2018-05-25T21:50:27.003Z,23.75
2018-05-25T21:52:52.994Z,23.74
2018-05-25T21:55:18.979Z,23.74
2018-05-25T21:57:44.959Z,23.73
2018-05-25T22:00:10.981Z,23.72
2018-05-25T22:02:36.955Z,23.73
2018-05-25T22:05:02.944Z,23.74
2018-05-25T22:07:28.929Z,23.73
2018-05-25T22:09:54.908Z,23.72
2018-05-25T22:12:20.906Z,23.72
2018-05-25T22:14:46.887Z,23.72
2018-05-25T22:17:12.916Z,23.72
2018-05-25T22:19:38.905Z,23.71
2018-05-25T22:22:04.895Z,23.71
2018-05-25T22:24:30.885Z,23.70
2018-05-25T22:26:56.873Z,23.70
2018-05-25T22:29:22.863Z,23.70
2018-05-25T22:31:48.879Z,23.70
2018-05-25T22:34:14.868Z,23.70
2018-05-25T22:36:40.846Z,23.70
2018-05-25T22:39:06.824Z,23.70
2018-05-25T22:41:32.807Z,23.69
2018-05-25T22:43:58.798Z,23.69
2018-05-25T22:46:24.773Z,23.69
2018-05-25T22:48:50.753Z,23.69
2018-05-25T22:51:16.735Z,23.68
2018-05-25T22:53:42.725Z,23.68
2018-05-25T22:56:08.708Z,23.68
2018-05-25T22:58:34.737Z,23.68
2018-05-25T23:01:00.733Z,23.67
2018-05-25T23:03:26.671Z,23.67
2018-05-25T23:05:52.651Z,23.67
2018-05-25T23:08:18.632Z,23.66
2018-05-25T23:10:44.615Z,23.66
2018-05-25T23:13:10.597Z,23.66
2018-05-25T23:15:36.578Z,23.66
2018-05-25T23:18:02.569Z,23.66
2018-05-25T23:20:28.630Z,23.66
2018-05-25T23:22:54.619Z,23.65
2018-05-25T23:25:20.612Z,23.65
2018-05-25T23:27:46.590Z,23.65
2018-05-25T23:30:12.615Z,23.64
2018-05-25T23:32:38.593Z,23.64
2018-05-25T23:35:04.584Z,23.64
2018-05-25T23:37:30.567Z,23.64
2018-05-25T23:39:56.579Z,23.64
2018-05-25T23:42:22.574Z,23.63
2018-05-25T23:44:48.560Z,23.63
2018-05-25T23:47:14.555Z,23.63
2018-05-25T23:49:40.538Z,23.63
2018-05-25T23:52:06.520Z,23.64
2018-05-25T23:54:32.511Z,23.63
2018-05-25T23:56:58.487Z,23.63
2018-05-25T23:59:24.473Z,23.63
